Terminal Aerodrome Forecast
Issued by NWS

Home | Current Version | Previous Version | Text Only | Print | Product List | Glossary On
Versions: 1 2 3 4 5 6 7 8 9 10 11 12 13 14 15 16 17 18 19 20 21
000
FTUS42 KKEY 240538
TAFMTH
TAF
KMTH 240538Z 2406/2506 06012G21KT P6SM VCSH SCT020 BKN050
      TEMPO 2406/2408 3SM +SHRA BKN020
     FM240900 07013G22KT P6SM SCT020 SCT050
     FM241800 09011G18KT P6SM FEW030=

USA.gov is the U.S. government's official web portal to all federal, state and local government web resources and services.